createdAt,value
2023-02-23T00:01:53.615Z,13.35
2023-02-23T00:04:23.525Z,10.43
2023-02-23T00:06:53.467Z,13.15
2023-02-23T00:09:24.309Z,10.68
2023-02-23T00:11:52.850Z,12.40
2023-02-23T00:14:21.220Z,10.75
2023-02-23T00:16:49.672Z,10.95
2023-02-23T00:19:18.089Z,12.50
2023-02-23T00:21:46.744Z,11.68
2023-02-23T00:24:18.688Z,10.18
2023-02-23T00:26:47.894Z,13.07
2023-02-23T00:29:17.490Z,10.38
2023-02-23T00:31:45.986Z,11.60
2023-02-23T00:34:14.960Z,10.27
2023-02-23T00:36:43.477Z,13.55
2023-02-23T00:39:21.494Z,12.05
2023-02-23T00:41:52.313Z,9.93
2023-02-23T00:44:21.293Z,10.35
2023-02-23T00:46:51.343Z,12.77
2023-02-23T00:49:20.132Z,12.10
2023-02-23T00:51:48.546Z,11.75
2023-02-23T00:54:17.525Z,9.60
2023-02-23T00:56:45.894Z,10.43
2023-02-23T00:59:15.875Z,10.73
2023-02-23T01:01:44.244Z,9.32
2023-02-23T01:04:13.222Z,13.60
2023-02-23T01:06:42.616Z,12.75
2023-02-23T01:09:13.549Z,11.13
2023-02-23T01:11:42.331Z,13.15
2023-02-23T01:14:11.242Z,14.05
2023-02-23T01:16:40.891Z,11.18
2023-02-23T01:19:09.305Z,11.93
2023-02-23T01:21:39.015Z,10.73
2023-02-23T01:24:07.939Z,15.10
2023-02-23T01:26:37.380Z,11.15
2023-02-23T01:29:08.697Z,13.25
2023-02-23T01:31:37.622Z,14.82
2023-02-23T01:34:07.594Z,13.70
2023-02-23T01:36:36.679Z,12.40
2023-02-23T01:39:07.539Z,11.52
2023-02-23T01:41:36.599Z,12.05
2023-02-23T01:44:06.102Z,10.18
2023-02-23T01:46:35.116Z,10.70
2023-02-23T01:49:03.864Z,11.45
2023-02-23T01:51:35.675Z,10.50
2023-02-23T01:54:05.447Z,10.40
2023-02-23T01:56:35.762Z,12.15
2023-02-23T01:59:05.356Z,15.07
2023-02-23T02:01:33.680Z,11.38
2023-02-23T02:04:05.659Z,13.68
2023-02-23T02:06:36.207Z,14.65
2023-02-23T02:09:07.460Z,13.82
2023-02-23T02:11:37.116Z,13.57
2023-02-23T02:14:08.991Z,12.15
2023-02-23T02:16:48.236Z,10.50
2023-02-23T02:19:56.333Z,13.23
2023-02-23T02:22:48.196Z,12.97
2023-02-23T02:25:51.391Z,13.10
2023-02-23T02:28:31.317Z,13.20
2023-02-23T02:31:22.382Z,13.70
2023-02-23T02:34:26.392Z,11.10
2023-02-23T02:37:09.862Z,14.52
2023-02-23T02:39:44.886Z,13.77
2023-02-23T02:42:18.969Z,15.35
2023-02-23T02:44:52.188Z,14.27
2023-02-23T02:47:23.236Z,13.35
2023-02-23T02:49:52.808Z,17.00
2023-02-23T02:52:24.976Z,11.68
2023-02-23T02:54:53.883Z,15.13
2023-02-23T02:57:22.932Z,14.95
2023-02-23T03:00:09.350Z,15.27
2023-02-23T03:02:56.247Z,10.93
2023-02-23T03:05:43.623Z,13.53
2023-02-23T03:08:34.820Z,12.07
2023-02-23T03:11:21.658Z,11.77
2023-02-23T03:14:14.013Z,12.67
2023-02-23T03:17:01.929Z,11.05
2023-02-23T03:19:48.806Z,13.43
2023-02-23T03:22:37.249Z,14.03
2023-02-23T03:25:26.251Z,13.40
2023-02-23T03:28:12.489Z,11.88
2023-02-23T03:31:06.400Z,10.77
2023-02-23T03:33:57.683Z,13.77
2023-02-23T03:36:44.612Z,14.10
2023-02-23T03:39:34.717Z,14.00
2023-02-23T03:42:30.927Z,12.13
2023-02-23T03:45:17.207Z,13.32
2023-02-23T03:48:03.127Z,12.27
2023-02-23T03:50:53.564Z,12.48
2023-02-23T03:53:42.157Z,11.35
2023-02-23T03:56:28.273Z,12.75
2023-02-23T03:59:17.200Z,15.50
2023-02-23T04:02:03.194Z,13.70
2023-02-23T04:04:49.340Z,16.80
2023-02-23T04:07:35.739Z,13.70
2023-02-23T04:10:21.880Z,13.15
2023-02-23T04:13:11.077Z,15.98
2023-02-23T04:15:41.229Z,16.77
2023-02-23T04:18:12.445Z,13.65
2023-02-23T04:20:40.777Z,15.45
2023-02-23T04:23:09.134Z,14.90
2023-02-23T04:25:37.484Z,12.55
2023-02-23T04:28:06.070Z,12.32
2023-02-23T04:30:34.397Z,14.80
2023-02-23T04:33:04.733Z,14.15
2023-02-23T04:35:33.101Z,16.13
2023-02-23T04:38:01.482Z,13.98
2023-02-23T04:40:29.814Z,16.60
2023-02-23T04:42:58.174Z,14.02
2023-02-23T04:45:26.553Z,13.73
2023-02-23T04:47:54.924Z,13.77
2023-02-23T04:50:24.715Z,14.32
2023-02-23T04:52:53.726Z,13.65
2023-02-23T04:55:23.108Z,14.82
2023-02-23T04:57:51.517Z,15.23
2023-02-23T05:00:20.311Z,14.82
2023-02-23T05:02:50.607Z,13.75
2023-02-23T05:05:19.286Z,13.98
2023-02-23T05:07:49.003Z,13.55
2023-02-23T05:10:17.547Z,13.20
2023-02-23T05:12:46.864Z,13.70
2023-02-23T05:15:15.246Z,15.68
2023-02-23T05:17:43.645Z,16.02
2023-02-23T05:20:12.961Z,12.65
2023-02-23T05:22:41.283Z,13.68
2023-02-23T05:25:12.008Z,15.88
2023-02-23T05:27:40.623Z,13.02
2023-02-23T05:30:10.274Z,13.95
2023-02-23T05:32:38.576Z,14.80
2023-02-23T05:35:07.659Z,11.88
2023-02-23T05:37:36.078Z,15.18
2023-02-23T05:40:06.019Z,19.67
2023-02-23T05:42:35.753Z,23.50
2023-02-23T05:45:04.927Z,13.48
2023-02-23T05:47:35.433Z,13.02
2023-02-23T05:50:03.786Z,11.02
2023-02-23T05:52:32.128Z,13.35
2023-02-23T05:55:00.534Z,14.68
2023-02-23T05:57:28.894Z,13.23
2023-02-23T05:59:58.544Z,14.43
2023-02-23T06:02:26.834Z,14.02
2023-02-23T06:04:55.843Z,15.77
2023-02-23T06:07:24.193Z,13.35
2023-02-23T06:09:52.505Z,14.15
2023-02-23T06:12:20.795Z,13.15
2023-02-23T06:14:50.673Z,16.27
2023-02-23T06:17:20.374Z,15.70
2023-02-23T06:19:48.857Z,15.57
2023-02-23T06:22:18.173Z,13.90
2023-02-23T06:24:46.471Z,10.50
2023-02-23T06:27:15.027Z,14.15
2023-02-23T06:29:43.386Z,11.52
2023-02-23T06:32:11.990Z,13.65
2023-02-23T06:34:41.695Z,11.88
2023-02-23T06:37:10.445Z,11.20
2023-02-23T06:39:38.815Z,13.13
2023-02-23T06:42:07.222Z,13.18
2023-02-23T06:44:37.137Z,11.85
2023-02-23T06:47:06.580Z,10.60
2023-02-23T06:49:34.921Z,14.57
2023-02-23T06:52:04.707Z,13.63
2023-02-23T06:54:34.179Z,13.05
2023-02-23T06:57:02.482Z,13.38
2023-02-23T06:59:31.362Z,10.50
2023-02-23T07:01:59.803Z,12.52
2023-02-23T07:04:28.148Z,9.88
2023-02-23T07:06:56.467Z,12.60
2023-02-23T07:09:26.257Z,13.75
2023-02-23T07:11:54.608Z,12.05
2023-02-23T07:14:26.889Z,10.23
2023-02-23T07:16:55.717Z,10.90
2023-02-23T07:19:24.429Z,11.38
2023-02-23T07:21:53.508Z,14.07
2023-02-23T07:24:22.008Z,10.90
2023-02-23T07:26:52.082Z,11.07
2023-02-23T07:29:20.401Z,11.10
2023-02-23T07:31:50.004Z,10.60
2023-02-23T07:34:18.424Z,9.00
2023-02-23T07:36:46.801Z,10.40
2023-02-23T07:39:15.195Z,7.80
2023-02-23T07:41:43.611Z,11.65
2023-02-23T07:44:13.625Z,13.43
2023-02-23T07:46:42.171Z,15.15
2023-02-23T07:49:10.525Z,9.65
2023-02-23T07:51:39.791Z,11.02
2023-02-23T07:54:08.196Z,9.77
2023-02-23T07:56:36.639Z,9.23
2023-02-23T07:59:05.210Z,9.82
2023-02-23T08:01:36.019Z,10.75
2023-02-23T08:04:04.524Z,11.43
2023-02-23T08:06:32.841Z,9.55
2023-02-23T08:09:01.331Z,10.93
2023-02-23T08:11:29.701Z,8.25
2023-02-23T08:14:00.044Z,8.90
2023-02-23T08:16:28.712Z,10.15
2023-02-23T08:18:59.320Z,8.43
2023-02-23T08:21:29.166Z,8.40
2023-02-23T08:23:57.624Z,7.28
2023-02-23T08:26:26.030Z,6.55
2023-02-23T08:28:54.450Z,8.43
2023-02-23T08:31:24.345Z,7.68
2023-02-23T08:33:53.200Z,8.98
2023-02-23T08:36:22.869Z,6.10
2023-02-23T08:38:51.283Z,6.97
2023-02-23T08:41:19.887Z,6.32
2023-02-23T08:43:48.730Z,57.92
2023-02-23T08:46:20.169Z,41.92
2023-02-23T08:48:48.503Z,50.03
2023-02-23T08:51:16.974Z,34.90
2023-02-23T08:53:46.779Z,26.40
2023-02-23T08:56:15.522Z,22.70
2023-02-23T08:58:44.060Z,28.20
2023-02-23T09:01:18.137Z,30.33
2023-02-23T09:03:46.722Z,18.50
2023-02-23T09:06:16.071Z,19.98
2023-02-23T09:08:45.743Z,22.35
2023-02-23T09:11:14.022Z,19.40
2023-02-23T09:13:42.303Z,17.25
2023-02-23T09:16:10.698Z,21.75
2023-02-23T09:18:39.144Z,14.25
2023-02-23T09:21:08.534Z,11.35
2023-02-23T09:23:36.859Z,21.08
2023-02-23T09:26:07.079Z,16.13
2023-02-23T09:28:35.533Z,12.23
2023-02-23T09:31:07.038Z,9.93
2023-02-23T09:33:35.458Z,16.33
2023-02-23T09:36:06.648Z,9.75
2023-02-23T09:38:34.947Z,16.20
2023-02-23T09:41:03.398Z,10.95
2023-02-23T09:43:35.456Z,11.68
2023-02-23T09:46:08.799Z,9.93
2023-02-23T09:48:37.125Z,12.45
2023-02-23T09:51:06.220Z,12.50
2023-02-23T09:53:37.733Z,8.88
2023-02-23T09:56:10.605Z,11.32
2023-02-23T09:58:40.910Z,12.82
2023-02-23T10:01:40.997Z,7.10
2023-02-23T10:04:11.945Z,11.30
2023-02-23T10:06:40.796Z,6.88
2023-02-23T10:09:16.999Z,7.45
2023-02-23T10:11:46.920Z,8.15
2023-02-23T10:14:24.295Z,10.88
2023-02-23T10:17:00.861Z,6.97
2023-02-23T10:19:32.285Z,8.15
2023-02-23T10:22:02.682Z,7.07
2023-02-23T10:24:31.943Z,7.13
2023-02-23T10:27:01.865Z,6.70
2023-02-23T10:29:32.885Z,6.32
2023-02-23T10:32:02.046Z,6.60
2023-02-23T10:34:30.548Z,9.95
2023-02-23T10:37:02.394Z,5.45
2023-02-23T10:39:30.907Z,7.03
2023-02-23T10:41:59.491Z,6.13
2023-02-23T10:44:28.679Z,11.23
2023-02-23T10:46:59.940Z,11.60
2023-02-23T10:49:41.420Z,7.13
2023-02-23T10:52:13.619Z,6.25
2023-02-23T10:54:44.493Z,8.02
2023-02-23T10:57:16.795Z,7.15
2023-02-23T11:00:08.740Z,5.32
2023-02-23T11:02:38.501Z,7.72
2023-02-23T11:05:08.499Z,6.20
2023-02-23T11:07:36.852Z,6.82
2023-02-23T11:10:25.645Z,5.55
2023-02-23T11:12:54.395Z,8.02
2023-02-23T11:15:46.354Z,6.47
2023-02-23T11:18:22.587Z,5.80
2023-02-23T11:20:51.044Z,10.98
2023-02-23T11:23:21.692Z,6.00
2023-02-23T11:25:50.000Z,3.75
2023-02-23T11:28:20.813Z,4.25
2023-02-23T11:30:49.498Z,5.45
2023-02-23T11:33:18.720Z,4.57
2023-02-23T11:35:48.403Z,4.35
2023-02-23T11:38:17.733Z,7.60
2023-02-23T11:40:46.448Z,6.63
2023-02-23T11:43:16.485Z,5.15
2023-02-23T11:45:46.756Z,5.70
2023-02-23T11:48:21.274Z,6.10
2023-02-23T11:50:51.000Z,10.48
2023-02-23T11:53:20.384Z,5.38
2023-02-23T11:55:48.804Z,8.90
2023-02-23T11:58:25.041Z,6.78
2023-02-23T12:00:57.392Z,7.83
2023-02-23T12:03:26.855Z,5.03
2023-02-23T12:05:59.127Z,7.47
2023-02-23T12:08:36.495Z,6.95
2023-02-23T12:11:06.436Z,5.93
2023-02-23T12:13:37.519Z,5.25
2023-02-23T12:16:06.943Z,7.72
2023-02-23T12:18:41.563Z,5.10
2023-02-23T12:21:16.788Z,6.00
2023-02-23T12:23:48.644Z,8.43
2023-02-23T12:26:19.101Z,8.43
2023-02-23T12:28:51.062Z,7.90
2023-02-23T12:31:23.685Z,10.30
2023-02-23T12:33:54.789Z,10.82
2023-02-23T12:36:29.829Z,11.73
2023-02-23T12:39:00.614Z,9.18
2023-02-23T12:41:34.828Z,10.07
2023-02-23T12:44:07.513Z,8.23
2023-02-23T12:46:36.501Z,13.60
2023-02-23T12:49:08.074Z,11.77
2023-02-23T12:51:39.665Z,9.57
2023-02-23T12:54:10.168Z,12.43
2023-02-23T12:56:52.370Z,10.90
2023-02-23T12:59:26.894Z,11.02
2023-02-23T13:01:55.986Z,8.30
2023-02-23T13:04:51.533Z,9.55
2023-02-23T13:07:22.490Z,11.48
2023-02-23T13:09:57.245Z,9.48
2023-02-23T13:12:36.237Z,7.40
2023-02-23T13:15:19.573Z,9.35
2023-02-23T13:17:50.512Z,7.20
2023-02-23T13:20:21.418Z,7.95
2023-02-23T13:22:53.680Z,7.10
2023-02-23T13:25:27.222Z,8.25
2023-02-23T13:27:58.249Z,6.63
2023-02-23T13:30:26.628Z,6.00
2023-02-23T13:32:55.304Z,5.65
2023-02-23T13:35:23.696Z,6.63
2023-02-23T13:37:54.048Z,9.90
2023-02-23T13:40:27.357Z,7.28
2023-02-23T13:43:01.583Z,6.18
2023-02-23T13:45:41.757Z,6.38
2023-02-23T13:48:18.188Z,7.20
2023-02-23T13:50:50.314Z,8.67
2023-02-23T13:53:39.567Z,7.70
2023-02-23T13:56:09.615Z,6.05
2023-02-23T13:58:38.053Z,8.18
2023-02-23T14:01:12.144Z,7.00
2023-02-23T14:03:48.978Z,7.22
2023-02-23T14:06:18.903Z,7.28
2023-02-23T14:08:56.859Z,8.13
2023-02-23T14:11:36.224Z,8.63
2023-02-23T14:14:04.685Z,5.45
2023-02-23T14:16:33.089Z,6.30
2023-02-23T14:19:10.863Z,6.80
2023-02-23T14:21:44.512Z,5.97
2023-02-23T14:24:19.361Z,7.55
2023-02-23T14:27:40.315Z,6.47
2023-02-23T14:30:25.365Z,6.28
2023-02-23T14:32:54.666Z,6.13
2023-02-23T14:35:42.660Z,6.30
2023-02-23T14:38:12.840Z,6.53
2023-02-23T14:40:43.207Z,5.90
2023-02-23T14:43:32.988Z,4.85
2023-02-23T14:46:01.893Z,4.85
2023-02-23T14:48:30.299Z,5.95
2023-02-23T14:51:16.406Z,5.18
2023-02-23T14:53:45.144Z,5.90
2023-02-23T14:56:21.602Z,4.22
2023-02-23T14:58:53.495Z,10.10
2023-02-23T15:01:35.192Z,5.75
2023-02-23T15:04:07.817Z,4.57
2023-02-23T15:06:36.646Z,5.60
2023-02-23T15:09:05.219Z,8.80
2023-02-23T15:11:37.182Z,7.75
2023-02-23T15:14:07.412Z,5.72
2023-02-23T15:16:37.174Z,5.05
2023-02-23T15:19:05.603Z,3.30
2023-02-23T15:21:35.787Z,7.75
2023-02-23T15:24:07.380Z,4.07
2023-02-23T15:26:38.017Z,6.60
2023-02-23T15:29:14.313Z,10.20
2023-02-23T15:31:50.165Z,9.43
2023-02-23T15:34:19.927Z,8.98
2023-02-23T15:36:49.948Z,11.82
2023-02-23T15:39:19.770Z,10.63
2023-02-23T15:41:49.519Z,15.50
2023-02-23T15:44:24.221Z,13.93
2023-02-23T15:46:55.086Z,20.75
2023-02-23T15:49:24.636Z,15.57
2023-02-23T15:51:53.617Z,7.75
2023-02-23T15:54:23.488Z,13.07
2023-02-23T15:56:57.180Z,7.95
2023-02-23T15:59:28.717Z,10.20
2023-02-23T16:01:57.990Z,9.70
2023-02-23T16:04:28.972Z,14.95
2023-02-23T16:07:07.150Z,11.43
2023-02-23T16:09:36.849Z,9.40
2023-02-23T16:12:09.794Z,12.05
2023-02-23T16:14:44.348Z,9.90
2023-02-23T16:17:16.793Z,9.63
2023-02-23T16:19:45.168Z,9.00
2023-02-23T16:22:20.743Z,14.48
2023-02-23T16:24:52.075Z,9.30
2023-02-23T16:27:22.315Z,6.78
2023-02-23T16:29:57.524Z,11.27
2023-02-23T16:32:25.963Z,7.57
2023-02-23T16:34:57.868Z,13.82
2023-02-23T16:37:27.842Z,13.07
2023-02-23T16:39:56.793Z,9.88
2023-02-23T16:42:28.852Z,9.55
2023-02-23T16:44:57.667Z,12.73
2023-02-23T16:47:36.299Z,12.77
2023-02-23T16:50:20.264Z,17.00
2023-02-23T16:52:51.777Z,10.13
2023-02-23T16:55:25.357Z,8.88
2023-02-23T16:57:56.110Z,13.43
2023-02-23T17:00:28.549Z,11.35
2023-02-23T17:02:57.304Z,11.88
2023-02-23T17:05:25.787Z,11.93
2023-02-23T17:07:54.356Z,22.40
2023-02-23T17:10:26.677Z,14.13
2023-02-23T17:12:57.314Z,10.75
2023-02-23T17:15:27.328Z,21.85
2023-02-23T17:17:56.607Z,16.95
2023-02-23T17:20:25.932Z,11.45
2023-02-23T17:22:55.037Z,11.13
2023-02-23T17:25:24.412Z,10.52
2023-02-23T17:27:53.049Z,8.52
2023-02-23T17:30:22.865Z,13.48
2023-02-23T17:32:51.756Z,15.75
2023-02-23T17:35:20.280Z,13.23
2023-02-23T17:37:48.606Z,10.85
2023-02-23T17:40:17.987Z,10.10
2023-02-23T17:42:46.400Z,13.77
2023-02-23T17:45:14.765Z,14.55
2023-02-23T17:47:44.434Z,7.35
2023-02-23T17:50:12.900Z,9.88
2023-02-23T17:52:41.279Z,9.15
2023-02-23T17:55:10.153Z,10.98
2023-02-23T17:57:38.460Z,7.75
2023-02-23T18:00:12.546Z,9.63
2023-02-23T18:02:41.228Z,7.85
2023-02-23T18:05:11.326Z,8.43
2023-02-23T18:07:39.680Z,11.65
2023-02-23T18:10:08.555Z,8.95
2023-02-23T18:12:36.908Z,9.20
2023-02-23T18:15:05.885Z,14.73
2023-02-23T18:17:37.112Z,9.43
2023-02-23T18:20:07.025Z,6.28
2023-02-23T18:22:36.774Z,8.68
2023-02-23T18:25:05.810Z,9.52
2023-02-23T18:27:34.189Z,6.13
2023-02-23T18:30:02.491Z,5.60
2023-02-23T18:32:30.834Z,9.32
2023-02-23T18:34:59.254Z,8.45
2023-02-23T18:37:28.788Z,8.65
2023-02-23T18:39:59.575Z,9.00
2023-02-23T18:42:27.944Z,9.02
2023-02-23T18:44:56.315Z,6.97
2023-02-23T18:47:25.654Z,9.07
2023-02-23T18:49:53.998Z,10.27
2023-02-23T18:52:22.655Z,8.80
2023-02-23T18:54:51.099Z,11.23
2023-02-23T18:57:20.859Z,12.45
2023-02-23T18:59:49.217Z,9.30
2023-02-23T19:02:18.825Z,7.10
2023-02-23T19:04:47.293Z,7.70
2023-02-23T19:07:15.590Z,6.15
2023-02-23T19:09:47.128Z,7.63
2023-02-23T19:12:15.497Z,11.25
2023-02-23T19:14:49.772Z,7.28
2023-02-23T19:17:18.394Z,6.70
2023-02-23T19:19:46.730Z,9.90
2023-02-23T19:22:15.049Z,10.15
2023-02-23T19:24:43.402Z,10.10
2023-02-23T19:27:12.008Z,8.77
2023-02-23T19:29:40.419Z,9.25
2023-02-23T19:32:10.317Z,6.72
2023-02-23T19:34:40.076Z,14.52
2023-02-23T19:37:08.959Z,9.05
2023-02-23T19:39:37.366Z,9.20
2023-02-23T19:42:05.839Z,10.20
2023-02-23T19:44:34.235Z,5.38
2023-02-23T19:47:02.608Z,6.22
2023-02-23T19:49:32.315Z,7.07
2023-02-23T19:52:00.752Z,5.95
2023-02-23T19:54:33.796Z,6.70
2023-02-23T19:57:04.187Z,9.27
2023-02-23T19:59:32.519Z,9.18
2023-02-23T20:02:00.885Z,9.95
2023-02-23T20:04:29.746Z,7.43
2023-02-23T20:06:59.510Z,5.68
2023-02-23T20:09:27.949Z,7.97
2023-02-23T20:11:56.671Z,6.80
2023-02-23T20:14:25.108Z,8.80
2023-02-23T20:16:53.480Z,5.72
2023-02-23T20:19:21.859Z,6.85
2023-02-23T20:21:50.626Z,3.92
2023-02-23T20:24:20.389Z,4.43
2023-02-23T20:26:48.741Z,7.53
2023-02-23T20:29:19.217Z,7.88
2023-02-23T20:31:50.803Z,8.43
2023-02-23T20:34:22.201Z,7.68
2023-02-23T20:36:51.928Z,5.95
2023-02-23T20:39:21.623Z,7.70
2023-02-23T20:41:53.646Z,8.10
2023-02-23T20:44:23.065Z,4.65
2023-02-23T20:46:51.448Z,7.85
2023-02-23T20:49:20.359Z,4.95
2023-02-23T20:51:49.811Z,7.47
2023-02-23T20:54:18.618Z,9.13
2023-02-23T20:56:58.702Z,7.97
2023-02-23T20:59:30.546Z,8.02
2023-02-23T21:02:01.560Z,4.93
2023-02-23T21:04:29.889Z,9.40
2023-02-23T21:06:58.740Z,4.95
2023-02-23T21:09:27.172Z,10.95
2023-02-23T21:11:56.818Z,5.75
2023-02-23T21:14:26.710Z,8.23
2023-02-23T21:16:55.266Z,5.63
2023-02-23T21:19:23.623Z,5.40
2023-02-23T21:21:57.872Z,8.85
2023-02-23T21:24:26.679Z,7.20
2023-02-23T21:26:56.615Z,10.95
2023-02-23T21:29:25.017Z,10.27
2023-02-23T21:31:55.451Z,5.65
2023-02-23T21:34:23.851Z,4.95
2023-02-23T21:36:53.611Z,6.40
2023-02-23T21:39:22.712Z,7.80
2023-02-23T21:41:51.140Z,20.20
2023-02-23T21:44:20.865Z,7.45
2023-02-23T21:46:50.524Z,11.43
2023-02-23T21:49:19.329Z,10.90
2023-02-23T21:51:47.660Z,11.05
2023-02-23T21:54:16.403Z,15.25
2023-02-23T21:56:44.801Z,6.15
2023-02-23T21:59:13.103Z,9.50
2023-02-23T22:01:43.329Z,12.00
2023-02-23T22:04:14.227Z,6.45
2023-02-23T22:06:44.244Z,11.82
2023-02-23T22:09:12.734Z,8.30
2023-02-23T22:11:44.343Z,6.25
2023-02-23T22:14:12.832Z,8.55
2023-02-23T22:16:42.756Z,11.98
2023-02-23T22:19:12.324Z,9.30
2023-02-23T22:21:41.675Z,10.68
2023-02-23T22:24:10.381Z,4.55
2023-02-23T22:26:39.620Z,9.10
2023-02-23T22:29:08.898Z,4.00
2023-02-23T22:31:37.671Z,4.50
2023-02-23T22:34:07.674Z,6.03
2023-02-23T22:36:36.255Z,5.78
2023-02-23T22:39:06.866Z,5.63
2023-02-23T22:41:42.184Z,4.70
2023-02-23T22:44:13.474Z,6.35
2023-02-23T22:46:42.333Z,6.22
2023-02-23T22:49:12.320Z,5.47
2023-02-23T22:51:40.800Z,7.35
2023-02-23T22:54:09.341Z,4.57
2023-02-23T22:56:38.299Z,5.32
2023-02-23T22:59:10.823Z,7.10
2023-02-23T23:01:40.010Z,4.95
2023-02-23T23:04:10.978Z,3.53
2023-02-23T23:06:41.397Z,5.32
2023-02-23T23:09:11.744Z,3.88
2023-02-23T23:11:42.622Z,6.45
2023-02-23T23:14:11.876Z,5.70
2023-02-23T23:16:47.732Z,4.45
2023-02-23T23:19:17.235Z,4.05
2023-02-23T23:21:47.144Z,5.70
2023-02-23T23:24:16.285Z,4.90
2023-02-23T23:26:45.165Z,4.88
2023-02-23T23:29:15.713Z,2.83
2023-02-23T23:31:46.464Z,6.38
2023-02-23T23:34:16.478Z,4.10
2023-02-23T23:36:49.095Z,2.63
2023-02-23T23:39:17.976Z,3.03
2023-02-23T23:41:48.134Z,5.22
2023-02-23T23:44:17.135Z,3.65
2023-02-23T23:46:46.326Z,6.05
2023-02-23T23:49:15.914Z,7.22
2023-02-23T23:51:46.386Z,4.32
2023-02-23T23:54:15.584Z,4.10
2023-02-23T23:56:44.644Z,3.33
2023-02-23T23:59:16.261Z,3.05
